createdAt,value
2018-01-14T00:01:32.671Z,5.90
2018-01-14T00:04:34.762Z,6.00
2018-01-14T00:07:36.102Z,5.80
2018-01-14T00:10:37.429Z,5.90
2018-01-14T00:13:38.712Z,5.90
2018-01-14T00:16:40.067Z,5.90
2018-01-14T00:19:41.403Z,5.90
2018-01-14T00:22:43.477Z,6.00
2018-01-14T00:25:44.914Z,6.00
2018-01-14T00:28:46.994Z,5.90
2018-01-14T00:31:48.372Z,5.90
2018-01-14T00:34:49.722Z,5.90
2018-01-14T00:37:51.050Z,5.90
2018-01-14T00:40:52.489Z,5.90
2018-01-14T00:43:54.584Z,5.90
2018-01-14T00:46:55.955Z,6.00
2018-01-14T00:49:57.290Z,6.00
2018-01-14T00:52:59.032Z,6.00
2018-01-14T00:56:00.494Z,5.90
2018-01-14T00:59:02.000Z,6.10
2018-01-14T01:02:03.528Z,5.90
2018-01-14T01:05:04.990Z,5.90
2018-01-14T01:08:06.416Z,6.00
2018-01-14T01:11:07.825Z,5.90
2018-01-14T01:14:09.936Z,6.00
2018-01-14T01:17:11.363Z,6.00
2018-01-14T01:20:12.893Z,5.90
2018-01-14T01:23:15.253Z,5.90
2018-01-14T01:26:18.656Z,5.90
2018-01-14T01:29:20.110Z,5.90
2018-01-14T01:32:21.499Z,5.80
2018-01-14T01:35:23.211Z,5.90
2018-01-14T01:38:24.657Z,5.80
2018-01-14T01:41:26.203Z,5.80
2018-01-14T01:44:27.699Z,5.80
2018-01-14T01:47:29.920Z,5.90
2018-01-14T01:50:31.384Z,5.90
2018-01-14T01:53:32.873Z,5.90
2018-01-14T01:56:34.980Z,5.80
2018-01-14T01:59:36.654Z,5.80
2018-01-14T02:02:38.523Z,5.90
2018-01-14T02:05:40.304Z,5.70
2018-01-14T02:08:42.460Z,5.80
2018-01-14T02:11:43.830Z,5.70
2018-01-14T02:14:45.217Z,5.60
2018-01-14T02:17:46.537Z,5.70
2018-01-14T02:20:48.581Z,5.80
2018-01-14T02:23:49.974Z,5.90
2018-01-14T02:26:51.223Z,5.80
2018-01-14T02:29:52.603Z,5.80
2018-01-14T02:32:53.997Z,5.80
2018-01-14T02:35:55.283Z,5.90
2018-01-14T02:38:56.557Z,5.90
2018-01-14T02:41:57.914Z,5.90
2018-01-14T02:44:59.265Z,6.30
2018-01-14T02:48:00.629Z,5.70
2018-01-14T02:51:02.025Z,5.60
2018-01-14T02:54:03.539Z,5.80
2018-01-14T02:57:04.873Z,5.90
2018-01-14T03:00:06.387Z,5.90
2018-01-14T03:03:07.938Z,5.90
2018-01-14T03:06:09.417Z,5.90
2018-01-14T03:09:11.133Z,5.90
2018-01-14T03:12:13.235Z,5.80
2018-01-14T03:15:14.721Z,5.80
2018-01-14T03:18:16.140Z,5.80
2018-01-14T03:21:17.586Z,5.90
2018-01-14T03:24:19.048Z,5.80
2018-01-14T03:27:20.397Z,5.70
2018-01-14T03:30:21.860Z,5.60
2018-01-14T03:33:23.311Z,5.60
2018-01-14T03:36:24.811Z,5.80
2018-01-14T03:39:27.006Z,5.90
2018-01-14T03:42:28.563Z,5.80
2018-01-14T03:45:30.048Z,5.80
2018-01-14T03:48:31.489Z,5.70
2018-01-14T03:51:32.950Z,5.80
2018-01-14T03:54:34.343Z,5.90
2018-01-14T03:57:35.722Z,5.90
2018-01-14T04:00:37.134Z,5.80
2018-01-14T04:03:38.509Z,5.90
2018-01-14T04:06:40.628Z,5.60
2018-01-14T04:09:41.993Z,5.50
2018-01-14T04:12:43.349Z,5.60
2018-01-14T04:15:44.663Z,5.80
2018-01-14T04:18:46.071Z,5.80
2018-01-14T04:21:48.171Z,5.70
2018-01-14T04:24:49.591Z,5.70
2018-01-14T04:27:51.691Z,5.70
2018-01-14T04:30:53.005Z,5.60
2018-01-14T04:33:55.095Z,5.60
2018-01-14T04:36:56.438Z,5.60
2018-01-14T04:39:58.612Z,5.60
2018-01-14T04:43:00.003Z,5.50
2018-01-14T04:46:01.346Z,5.60
2018-01-14T04:49:02.897Z,5.60
2018-01-14T04:52:04.977Z,5.70
2018-01-14T04:55:07.107Z,5.70
2018-01-14T04:58:08.510Z,5.60
2018-01-14T05:01:09.998Z,5.60
2018-01-14T05:04:12.098Z,5.70
2018-01-14T05:07:13.470Z,5.50
2018-01-14T05:10:14.850Z,5.60
2018-01-14T05:13:16.993Z,5.60
2018-01-14T05:16:18.348Z,5.60
2018-01-14T05:19:19.701Z,5.60
2018-01-14T05:22:21.058Z,5.50
2018-01-14T05:25:22.532Z,5.60
2018-01-14T05:28:24.089Z,5.50
2018-01-14T05:31:25.567Z,5.60
2018-01-14T05:34:27.002Z,5.70
2018-01-14T05:37:29.304Z,5.60
2018-01-14T05:40:30.815Z,5.60
2018-01-14T05:43:33.042Z,5.60
2018-01-14T05:46:34.341Z,5.30
2018-01-14T05:49:36.445Z,5.50
2018-01-14T05:52:37.787Z,5.30
2018-01-14T05:55:39.181Z,5.50
2018-01-14T05:58:40.567Z,5.50
2018-01-14T06:01:42.975Z,5.50
2018-01-14T06:04:44.296Z,5.50
2018-01-14T06:07:46.394Z,5.30
2018-01-14T06:10:47.833Z,5.40
2018-01-14T06:13:49.214Z,5.10
2018-01-14T06:16:50.623Z,5.20
2018-01-14T06:19:52.019Z,5.20
2018-01-14T06:22:54.094Z,5.20
2018-01-14T06:25:55.441Z,5.10
2018-01-14T06:28:56.786Z,5.10
2018-01-14T06:31:58.157Z,5.20
2018-01-14T06:34:59.478Z,5.00
2018-01-14T06:38:00.834Z,5.00
2018-01-14T06:41:02.234Z,5.10
2018-01-14T06:44:04.273Z,5.00
2018-01-14T06:47:05.665Z,4.90
2018-01-14T06:50:07.064Z,5.10
2018-01-14T06:53:08.365Z,5.10
2018-01-14T06:56:09.711Z,5.00
2018-01-14T06:59:11.080Z,5.00
2018-01-14T07:02:12.468Z,5.00
2018-01-14T07:05:13.797Z,5.00
2018-01-14T07:08:15.163Z,5.00
2018-01-14T07:11:16.522Z,4.80
2018-01-14T07:14:17.894Z,5.00
2018-01-14T07:17:20.044Z,5.20
2018-01-14T07:20:21.404Z,5.30
2018-01-14T07:23:22.837Z,5.30
2018-01-14T07:26:24.190Z,5.30
2018-01-14T07:29:25.547Z,5.20
2018-01-14T07:32:26.903Z,5.30
2018-01-14T07:35:28.255Z,5.20
2018-01-14T07:38:29.571Z,5.10
2018-01-14T07:41:30.918Z,5.10
2018-01-14T07:44:32.268Z,5.20
2018-01-14T07:47:33.692Z,5.20
2018-01-14T07:50:35.051Z,5.30
2018-01-14T07:53:36.420Z,5.40
2018-01-14T07:56:37.805Z,5.20
2018-01-14T07:59:39.185Z,5.30
2018-01-14T08:02:40.562Z,5.30
2018-01-14T08:05:41.901Z,5.30
2018-01-14T08:08:43.297Z,5.20
2018-01-14T08:11:44.614Z,5.20
2018-01-14T08:14:45.963Z,5.40
2018-01-14T08:17:47.302Z,5.30
2018-01-14T08:20:48.588Z,5.30
2018-01-14T08:23:49.841Z,5.20
2018-01-14T08:26:51.094Z,5.30
2018-01-14T08:29:52.369Z,5.30
2018-01-14T08:32:54.370Z,5.40
2018-01-14T08:35:55.626Z,5.40
2018-01-14T08:38:56.888Z,5.30
2018-01-14T08:41:58.109Z,5.30
2018-01-14T08:44:59.405Z,5.20
2018-01-14T08:48:00.666Z,5.40
2018-01-14T08:51:01.952Z,5.40
2018-01-14T08:54:03.204Z,5.30
2018-01-14T08:57:06.629Z,5.30
2018-01-14T09:00:07.884Z,5.50
2018-01-14T09:03:09.734Z,5.60
2018-01-14T09:06:11.151Z,5.70
2018-01-14T09:09:12.838Z,5.50
2018-01-14T09:12:14.150Z,5.50
2018-01-14T09:15:16.131Z,5.40
2018-01-14T09:18:18.664Z,5.40
2018-01-14T09:21:19.945Z,5.40
2018-01-14T09:24:21.961Z,5.60
2018-01-14T09:27:23.992Z,5.50
2018-01-14T09:30:43.912Z,5.50
2018-01-14T09:33:45.282Z,5.50
2018-01-14T09:36:46.742Z,5.50
2018-01-14T09:39:48.085Z,5.50
2018-01-14T09:42:49.410Z,5.40
2018-01-14T09:45:50.707Z,5.30
2018-01-14T09:48:54.220Z,5.50
2018-01-14T09:51:56.228Z,5.60
2018-01-14T09:54:57.511Z,5.50
2018-01-14T09:57:58.790Z,5.50
2018-01-14T10:01:00.071Z,5.40
2018-01-14T10:04:01.361Z,5.50
2018-01-14T10:07:02.638Z,5.30
2018-01-14T10:10:03.927Z,5.20
2018-01-14T10:13:05.171Z,5.20
2018-01-14T10:16:06.454Z,5.20
2018-01-14T10:19:07.716Z,5.20
2018-01-14T10:22:09.745Z,5.30
2018-01-14T10:25:11.001Z,5.20
2018-01-14T10:28:12.293Z,5.20
2018-01-14T10:31:14.349Z,5.20
2018-01-14T10:34:16.346Z,5.30
2018-01-14T10:37:17.609Z,5.20
2018-01-14T10:40:18.839Z,5.30
2018-01-14T10:43:20.109Z,5.30
2018-01-14T10:46:21.363Z,5.30
2018-01-14T10:49:22.641Z,5.60
2018-01-14T10:52:23.937Z,5.60
2018-01-14T10:55:25.147Z,5.40
2018-01-14T10:58:27.197Z,5.30
2018-01-14T11:01:30.395Z,5.30
2018-01-14T11:04:31.713Z,5.50
2018-01-14T11:07:32.930Z,5.40
2018-01-14T11:10:34.207Z,5.40
2018-01-14T11:13:35.500Z,5.30
2018-01-14T11:16:37.503Z,5.40
2018-01-14T11:19:38.805Z,5.30
2018-01-14T11:22:40.034Z,5.30
2018-01-14T11:25:41.335Z,5.50
2018-01-14T11:28:42.595Z,5.30
2018-01-14T11:31:43.857Z,5.00
2018-01-14T11:34:45.885Z,5.30
2018-01-14T11:37:47.145Z,5.30
2018-01-14T11:40:48.609Z,5.30
2018-01-14T11:43:49.834Z,5.20
2018-01-14T11:46:51.831Z,5.20
2018-01-14T11:49:53.075Z,5.20
2018-01-14T11:52:54.333Z,5.30
2018-01-14T11:55:55.559Z,5.40
2018-01-14T11:58:56.864Z,5.50
2018-01-14T12:01:58.156Z,5.40
2018-01-14T12:04:59.447Z,5.30
2018-01-14T12:08:00.759Z,5.50
2018-01-14T12:11:04.212Z,5.50
2018-01-14T12:14:05.983Z,5.50
2018-01-14T12:17:07.959Z,5.30
2018-01-14T12:20:11.406Z,5.40
2018-01-14T12:23:13.957Z,5.30
2018-01-14T12:26:15.188Z,5.40
2018-01-14T12:29:18.179Z,5.40
2018-01-14T12:32:20.401Z,5.40
2018-01-14T12:35:21.664Z,5.40
2018-01-14T12:38:22.920Z,5.80
2018-01-14T12:41:24.204Z,5.70
2018-01-14T12:44:25.501Z,5.80
2018-01-14T12:47:26.756Z,5.80
2018-01-14T12:50:28.020Z,5.70
2018-01-14T12:53:30.009Z,5.50
2018-01-14T12:56:31.289Z,5.50
2018-01-14T12:59:32.499Z,5.40
2018-01-14T13:02:33.793Z,5.50
2018-01-14T13:05:35.799Z,5.50
2018-01-14T13:08:37.801Z,5.50
2018-01-14T13:11:39.104Z,5.50
2018-01-14T13:14:41.083Z,5.40
2018-01-14T13:17:43.169Z,5.50
2018-01-14T13:20:45.117Z,5.40
2018-01-14T13:23:47.146Z,5.40
2018-01-14T13:26:48.412Z,5.20
2018-01-14T13:29:49.704Z,5.40
2018-01-14T13:32:50.990Z,5.50
2018-01-14T13:35:52.236Z,5.40
2018-01-14T13:38:53.529Z,5.50
2018-01-14T13:41:55.512Z,5.50
2018-01-14T13:44:56.812Z,5.60
2018-01-14T13:47:58.043Z,5.50
2018-01-14T13:50:59.318Z,5.60
2018-01-14T13:54:00.600Z,5.60
2018-01-14T13:57:01.839Z,5.50
2018-01-14T14:00:03.181Z,5.50
2018-01-14T14:03:05.180Z,5.60
2018-01-14T14:06:07.215Z,5.50
2018-01-14T14:09:09.235Z,5.60
2018-01-14T14:12:10.517Z,5.50
2018-01-14T14:15:12.530Z,5.60
2018-01-14T14:18:13.782Z,5.60
2018-01-14T14:21:15.065Z,5.70
2018-01-14T14:24:16.306Z,5.70
2018-01-14T14:27:17.568Z,5.50
2018-01-14T14:30:18.862Z,5.60
2018-01-14T14:33:20.102Z,5.50
2018-01-14T14:36:21.403Z,5.50
2018-01-14T14:39:22.700Z,5.50
2018-01-14T14:42:23.994Z,5.60
2018-01-14T14:45:25.240Z,5.60
2018-01-14T14:48:26.577Z,5.60
2018-01-14T14:51:27.844Z,5.70
2018-01-14T14:54:29.088Z,5.70
2018-01-14T14:57:30.385Z,5.60
2018-01-14T15:00:31.613Z,5.50
2018-01-14T15:03:33.668Z,5.50
2018-01-14T15:06:34.910Z,5.40
2018-01-14T15:09:36.171Z,5.40
2018-01-14T15:12:38.205Z,5.30
2018-01-14T15:15:39.498Z,5.20
2018-01-14T15:18:41.536Z,5.10
2018-01-14T15:21:42.815Z,5.10
2018-01-14T15:24:44.809Z,5.00
2018-01-14T15:27:46.046Z,4.90
2018-01-14T15:30:47.322Z,5.00
2018-01-14T15:33:48.598Z,5.00
2018-01-14T15:36:49.842Z,5.00
2018-01-14T15:39:51.120Z,5.00
2018-01-14T15:42:53.098Z,4.90
2018-01-14T15:45:54.385Z,4.90
2018-01-14T15:48:55.644Z,4.80
2018-01-14T15:51:56.905Z,4.70
2018-01-14T15:54:58.160Z,4.60
2018-01-14T15:58:00.185Z,4.50
2018-01-14T16:01:01.505Z,4.50
2018-01-14T16:04:02.757Z,4.50
2018-01-14T16:07:04.090Z,4.50
2018-01-14T16:10:06.124Z,4.30
2018-01-14T16:13:07.456Z,4.30
2018-01-14T16:16:09.059Z,4.30
2018-01-14T16:19:11.202Z,4.20
2018-01-14T16:22:12.552Z,4.20
2018-01-14T16:25:13.842Z,4.00
2018-01-14T16:28:15.150Z,4.10
2018-01-14T16:31:17.805Z,4.30
2018-01-14T16:34:19.243Z,4.50
2018-01-14T16:37:20.791Z,4.20
2018-01-14T16:40:22.597Z,3.90
2018-01-14T16:43:24.517Z,4.10
2018-01-14T16:46:26.674Z,4.00
2018-01-14T16:49:28.265Z,3.90
2018-01-14T16:52:29.692Z,4.00
2018-01-14T16:55:31.053Z,3.90
2018-01-14T16:58:33.165Z,4.10
2018-01-14T17:01:34.568Z,4.10
2018-01-14T17:04:37.170Z,4.10
2018-01-14T17:07:38.535Z,3.90
2018-01-14T17:10:39.879Z,3.90
2018-01-14T17:13:41.470Z,3.80
2018-01-14T17:16:43.433Z,3.70
2018-01-14T17:19:46.586Z,3.80
2018-01-14T17:22:49.171Z,3.90
2018-01-14T17:25:50.543Z,3.90
2018-01-14T17:28:52.869Z,3.60
2018-01-14T17:31:55.153Z,3.60
2018-01-14T17:34:57.868Z,3.80
2018-01-14T17:37:59.209Z,3.70
2018-01-14T17:41:00.481Z,3.80
2018-01-14T17:44:01.794Z,3.80
2018-01-14T17:47:03.147Z,3.90
2018-01-14T17:50:04.962Z,3.90
2018-01-14T17:53:07.414Z,3.70
2018-01-14T17:56:08.756Z,3.80
2018-01-14T17:59:10.860Z,3.70
2018-01-14T18:02:13.337Z,3.70
2018-01-14T18:05:15.244Z,3.80
2018-01-14T18:08:17.879Z,3.70
2018-01-14T18:11:19.516Z,3.70
2018-01-14T18:14:20.981Z,3.60
2018-01-14T18:17:26.546Z,3.80
2018-01-14T18:20:27.902Z,3.80
2018-01-14T18:23:30.591Z,4.00
2018-01-14T18:26:31.993Z,3.90
2018-01-14T18:29:33.309Z,4.30
2018-01-14T18:32:34.650Z,4.70
2018-01-14T18:35:37.188Z,4.30
2018-01-14T18:38:38.796Z,4.30
2018-01-14T18:41:40.218Z,4.20
2018-01-14T18:44:43.130Z,4.10
2018-01-14T18:47:44.856Z,4.00
2018-01-14T18:50:47.507Z,4.10
2018-01-14T18:53:50.252Z,4.10
2018-01-14T18:56:51.609Z,4.20
2018-01-14T18:59:53.371Z,4.20
2018-01-14T19:02:55.627Z,4.20
2018-01-14T19:06:00.479Z,4.40
2018-01-14T19:09:01.784Z,4.40
2018-01-14T19:12:03.405Z,4.30
2018-01-14T19:15:04.807Z,4.20
2018-01-14T19:18:07.311Z,4.20
2018-01-14T19:21:08.735Z,4.20
2018-01-14T19:24:10.842Z,4.20
2018-01-14T19:27:13.216Z,4.20
2018-01-14T19:30:15.167Z,4.20
2018-01-14T19:33:18.518Z,4.20
2018-01-14T19:36:21.260Z,4.00
2018-01-14T19:39:22.746Z,4.00
2018-01-14T19:42:24.128Z,4.00
2018-01-14T19:45:26.356Z,4.10
2018-01-14T19:48:27.859Z,4.00
2018-01-14T19:51:29.390Z,4.00
2018-01-14T19:54:30.849Z,4.00
2018-01-14T19:57:32.201Z,4.00
2018-01-14T20:00:34.820Z,4.00
2018-01-14T20:03:37.538Z,3.90
2018-01-14T20:06:38.966Z,4.00
2018-01-14T20:09:43.045Z,4.00
2018-01-14T20:12:45.828Z,3.90
2018-01-14T20:15:47.372Z,3.80
2018-01-14T20:18:49.534Z,4.00
2018-01-14T20:21:52.036Z,3.90
2018-01-14T20:24:53.805Z,3.90
2018-01-14T20:27:55.842Z,3.90
2018-01-14T20:30:57.948Z,3.80
2018-01-14T20:34:00.691Z,3.80
2018-01-14T20:37:02.712Z,3.80
2018-01-14T20:40:04.152Z,3.90
2018-01-14T20:43:07.856Z,3.80
2018-01-14T20:46:11.573Z,3.80
2018-01-14T20:49:13.030Z,3.80
2018-01-14T20:52:14.811Z,3.70
2018-01-14T20:55:16.955Z,3.80
2018-01-14T20:58:18.354Z,3.90
2018-01-14T21:01:20.751Z,3.80
2018-01-14T21:04:23.798Z,3.80
2018-01-14T21:07:26.390Z,3.80
2018-01-14T21:10:28.396Z,3.80
2018-01-14T21:13:29.782Z,3.90
2018-01-14T21:16:31.231Z,4.10
2018-01-14T21:19:32.620Z,4.50
2018-01-14T21:22:35.372Z,4.20
2018-01-14T21:25:36.925Z,3.90
2018-01-14T21:28:39.344Z,4.00
2018-01-14T21:31:41.920Z,3.80
2018-01-14T21:34:45.008Z,3.80
2018-01-14T21:37:48.393Z,3.80
2018-01-14T21:40:50.196Z,3.50
2018-01-14T21:43:58.422Z,3.80
2018-01-14T21:47:05.362Z,3.80
2018-01-14T21:50:08.495Z,3.80
2018-01-14T21:53:10.685Z,3.80
2018-01-14T21:56:12.875Z,3.80
2018-01-14T21:59:14.302Z,3.80
2018-01-14T22:02:15.740Z,3.60
2018-01-14T22:05:17.960Z,3.60
2018-01-14T22:08:19.361Z,3.70
2018-01-14T22:11:21.459Z,3.60
2018-01-14T22:14:22.833Z,3.60
2018-01-14T22:17:24.192Z,3.60
2018-01-14T22:20:25.561Z,3.60
2018-01-14T22:23:26.923Z,3.70
2018-01-14T22:26:29.035Z,3.60
2018-01-14T22:29:30.367Z,3.50
2018-01-14T22:32:31.726Z,3.70
2018-01-14T22:35:33.290Z,3.50
2018-01-14T22:38:34.736Z,3.60
2018-01-14T22:41:36.847Z,3.60
2018-01-14T22:44:38.185Z,3.60
2018-01-14T22:47:39.679Z,3.80
2018-01-14T22:50:41.770Z,3.50
2018-01-14T22:53:43.320Z,3.50
2018-01-14T22:56:44.683Z,3.40
2018-01-14T22:59:46.055Z,3.40
2018-01-14T23:02:47.438Z,3.60
2018-01-14T23:05:48.795Z,3.50
2018-01-14T23:08:50.993Z,3.60
2018-01-14T23:11:52.428Z,3.60
2018-01-14T23:14:59.860Z,3.60
2018-01-14T23:18:01.247Z,3.40
2018-01-14T23:21:02.622Z,3.70
2018-01-14T23:24:04.732Z,3.60
2018-01-14T23:27:12.963Z,3.60
2018-01-14T23:30:14.359Z,3.50
2018-01-14T23:33:15.729Z,3.50
2018-01-14T23:36:17.150Z,3.70
2018-01-14T23:39:19.222Z,3.60
2018-01-14T23:42:21.341Z,3.70
2018-01-14T23:45:22.718Z,3.70
2018-01-14T23:48:24.082Z,3.70
2018-01-14T23:51:26.194Z,3.50
2018-01-14T23:54:27.522Z,3.50
2018-01-14T23:57:28.900Z,3.40
